Time;durP1;ratioP1;P1;durP2;ratioP2;P2;SDS_P1;SDS_P2;PMS_P1;PMS_P2;Temp;Humidity;BMP_temperature;BMP_pressure;BME280_temperature;BME280_humidity;BME280_pressure;Samples;Min_cycle;Max_cycle;Signal;HPM_P1;HPM_P2
2023/05/17 00:00:27;;;;;;;;;;;7.50;62.20;;;;;;4112757;28;19918;-86
2023/05/17 00:02:32;;;;;;;;;;;7.50;62.50;;;;;;4124746;28;19984;-86
2023/05/17 00:04:36;;;;;;;;;;;7.40;62.50;;;;;;4111990;28;20222;-84
2023/05/17 00:06:40;;;;;;;;;;;7.50;62.70;;;;;;4125652;28;19922;-86
2023/05/17 00:08:46;;;;;;;;;;;7.40;62.70;;;;;;4118764;28;19922;-85
2023/05/17 00:11:12;;;;;;;;;;;7.30;62.60;;;;;;4126022;28;19922;-83
2023/05/17 00:13:15;;;;;;;;;;;7.40;62.80;;;;;;4100404;28;20324;-85
2023/05/17 00:15:19;;;;;;;;;;;7.40;62.70;;;;;;4134891;28;19996;-85
2023/05/17 00:17:22;;;;;;;;;;;7.30;62.60;;;;;;4100387;28;19923;-85
2023/05/17 00:19:23;;;;;;;;;;;7.30;62.50;;;;;;4098893;28;20245;-85
2023/05/17 00:21:36;;;;;;;;;;;7.20;62.20;;;;;;4098324;28;19978;-84
2023/05/17 00:23:36;;;;;;;;;;;7.20;62.30;;;;;;4128404;28;20096;-84
2023/05/17 00:25:58;;;;;;;;;;;;;;;;;;;;;
2023/05/17 00:28:14;;;;;;;;;;;7.10;62.30;;;;;;4113022;28;19990;-84
2023/05/17 00:30:35;;;;;;;;;;;7.10;62.60;;;;;;4114459;28;19926;-84
2023/05/17 00:33:05;;;;;;;;;;;7.00;62.70;;;;;;4159346;23;19934;-84
2023/05/17 00:35:09;;;;;;;;;;;7.00;62.80;;;;;;4118833;28;20044;-84
2023/05/17 00:37:20;;;;;;;;;;;6.90;62.70;;;;;;4117878;28;19928;-85
2023/05/17 00:39:42;;;;;;;;;;;;;;;;;;;;;
2023/05/17 00:41:57;;;;;;;;;;;7.00;62.80;;;;;;4117837;28;19918;-86
2023/05/17 00:43:57;;;;;;;;;;;6.90;62.70;;;;;;4119114;28;19928;-83
2023/05/17 00:46:07;;;;;;;;;;;6.80;62.80;;;;;;4118957;28;20424;-84
2023/05/17 00:48:11;;;;;;;;;;;6.80;62.90;;;;;;4118981;28;20345;-85
2023/05/17 00:50:21;;;;;;;;;;;6.70;62.80;;;;;;4103766;28;20733;-84
2023/05/17 00:52:32;;;;;;;;;;;6.80;62.90;;;;;;4116707;28;19920;-84
2023/05/17 00:54:37;;;;;;;;;;;6.70;62.80;;;;;;4134417;28;19925;-85
2023/05/17 00:56:45;;;;;;;;;;;6.60;62.90;;;;;;4117049;28;19949;-84
2023/05/17 00:58:46;;;;;;;;;;;6.70;63.10;;;;;;4116618;28;19924;-83
2023/05/17 01:01:00;;;;;;;;;;;6.70;63.80;;;;;;4099667;28;20408;-84
2023/05/17 01:03:08;;;;;;;;;;;6.70;63.00;;;;;;4116609;28;19965;-85
2023/05/17 01:05:16;;;;;;;;;;;6.70;62.90;;;;;;4102879;28;19929;-84
2023/05/17 01:07:17;;;;;;;;;;;6.60;62.70;;;;;;4118618;28;19926;-85
2023/05/17 01:09:21;;;;;;;;;;;6.60;62.50;;;;;;4117759;28;20430;-82
2023/05/17 01:11:25;;;;;;;;;;;6.50;62.50;;;;;;4118542;28;19922;-85
2023/05/17 01:13:39;;;;;;;;;;;6.50;62.40;;;;;;4133928;28;19946;-84
2023/05/17 01:18:43;;;;;;;;;;;6.50;62.40;;;;;;4122198;28;19932;-82
2023/05/17 01:20:59;;;;;;;;;;;6.50;62.40;;;;;;4105879;28;19962;-85
2023/05/17 01:23:26;;;;;;;;;;;6.50;63.20;;;;;;4128774;28;19926;-83
2023/05/17 01:26:14;;;;;;;;;;;6.40;62.40;;;;;;4127671;28;19929;-84
2023/05/17 01:28:51;;;;;;;;;;;6.50;62.50;;;;;;4126245;28;19922;-83
2023/05/17 01:31:12;;;;;;;;;;;6.50;62.60;;;;;;4127309;28;19914;-84
2023/05/17 01:33:33;;;;;;;;;;;6.50;62.80;;;;;;4132228;28;19922;-82
2023/05/17 01:36:03;;;;;;;;;;;6.60;62.80;;;;;;4129242;28;19918;-83
2023/05/17 01:38:26;;;;;;;;;;;6.50;63.40;;;;;;4125847;28;20020;-83
2023/05/17 01:41:09;;;;;;;;;;;6.50;62.90;;;;;;4128068;28;19949;-84
2023/05/17 01:43:36;;;;;;;;;;;6.60;62.70;;;;;;4126757;28;19932;-84
2023/05/17 01:46:13;;;;;;;;;;;6.40;62.60;;;;;;4127910;28;20389;-83
2023/05/17 01:48:39;;;;;;;;;;;6.40;62.70;;;;;;4129502;28;19933;-83
2023/05/17 01:50:55;;;;;;;;;;;6.50;62.80;;;;;;4112022;28;19918;-84
2023/05/17 01:53:28;;;;;;;;;;;6.30;62.50;;;;;;4127732;28;20324;-85
2023/05/17 01:55:55;;;;;;;;;;;6.30;62.50;;;;;;4140914;28;19956;-84
2023/05/17 01:58:23;;;;;;;;;;;6.30;62.30;;;;;;4127999;28;19910;-83
2023/05/17 02:00:45;;;;;;;;;;;6.40;62.40;;;;;;4127158;28;19929;-83
2023/05/17 02:03:19;;;;;;;;;;;6.30;62.10;;;;;;4130377;28;20108;-83
2023/05/17 02:05:39;;;;;;;;;;;6.30;62.20;;;;;;4127523;28;20014;-81
2023/05/17 02:08:07;;;;;;;;;;;6.40;62.10;;;;;;4139023;28;19933;-81
2023/05/17 02:10:28;;;;;;;;;;;6.30;62.00;;;;;;4127930;28;19913;-84
2023/05/17 02:12:48;;;;;;;;;;;6.20;61.60;;;;;;4123769;28;19918;-83
2023/05/17 02:15:10;;;;;;;;;;;6.20;61.20;;;;;;4128428;28;19922;-82
2023/05/17 02:17:31;;;;;;;;;;;6.20;61.30;;;;;;4128437;28;19961;-83
2023/05/17 02:19:52;;;;;;;;;;;6.20;61.40;;;;;;4129630;28;19920;-84
2023/05/17 02:22:12;;;;;;;;;;;6.30;61.00;;;;;;4127781;28;19977;-82
2023/05/17 02:24:33;;;;;;;;;;;6.20;60.90;;;;;;4129653;28;19934;-83
2023/05/17 02:26:54;;;;;;;;;;;6.30;61.00;;;;;;4128003;28;19922;-82
2023/05/17 02:29:15;;;;;;;;;;;6.30;60.80;;;;;;4128112;28;20553;-84
2023/05/17 02:31:15;;;;;;;;;;;6.20;60.80;;;;;;4128978;28;19926;-84
2023/05/17 02:33:16;;;;;;;;;;;6.20;60.70;;;;;;4125995;28;19925;-85
2023/05/17 02:35:17;;;;;;;;;;;6.20;60.70;;;;;;4127398;28;19948;-83
2023/05/17 02:37:17;;;;;;;;;;;6.20;60.80;;;;;;4140783;28;19945;-83
2023/05/17 02:39:18;;;;;;;;;;;6.20;60.70;;;;;;4129746;28;19922;-84
2023/05/17 02:41:19;;;;;;;;;;;6.30;60.80;;;;;;4130088;28;19921;-83
2023/05/17 02:43:19;;;;;;;;;;;6.30;60.80;;;;;;4130195;28;19990;-85
2023/05/17 02:45:20;;;;;;;;;;;6.20;60.70;;;;;;4129964;28;19934;-84
2023/05/17 02:47:21;;;;;;;;;;;6.30;60.70;;;;;;4128804;28;19957;-84
2023/05/17 02:49:25;;;;;;;;;;;6.30;60.80;;;;;;4130177;28;19934;-85
2023/05/17 02:51:26;;;;;;;;;;;6.20;60.80;;;;;;4130196;28;20064;-83
2023/05/17 02:53:30;;;;;;;;;;;6.30;60.80;;;;;;4134193;28;19930;-83
2023/05/17 02:55:33;;;;;;;;;;;6.30;60.50;;;;;;4131690;28;19945;-83
2023/05/17 02:57:39;;;;;;;;;;;6.30;60.30;;;;;;4129435;28;19920;-85
2023/05/17 02:59:40;;;;;;;;;;;6.20;59.80;;;;;;4135254;28;19944;-84
2023/05/17 03:01:43;;;;;;;;;;;6.30;60.00;;;;;;4132164;28;20339;-84
2023/05/17 03:03:44;;;;;;;;;;;6.30;59.90;;;;;;4138697;28;19918;-85
2023/05/17 03:05:47;;;;;;;;;;;6.40;59.80;;;;;;4130211;28;19929;-86
2023/05/17 03:07:48;;;;;;;;;;;6.40;59.60;;;;;;4148097;28;19926;-84
2023/05/17 03:09:51;;;;;;;;;;;6.30;59.40;;;;;;4129846;28;20120;-84
2023/05/17 03:11:54;;;;;;;;;;;6.50;59.60;;;;;;4128967;28;19909;-85
2023/05/17 03:13:55;;;;;;;;;;;6.40;59.40;;;;;;4142612;28;19921;-84
2023/05/17 03:15:56;;;;;;;;;;;6.50;59.50;;;;;;4115032;28;19929;-85
2023/05/17 03:20:30;;;;;;;;;;;6.40;59.40;;;;;;4132198;28;19929;-84
2023/05/17 03:22:30;;;;;;;;;;;6.50;59.20;;;;;;4128985;28;19945;-83
2023/05/17 03:24:31;;;;;;;;;;;6.50;59.40;;;;;;4120170;28;20118;-84
2023/05/17 03:26:32;;;;;;;;;;;6.60;59.50;;;;;;4116790;28;19968;-84
2023/05/17 03:28:32;;;;;;;;;;;6.60;59.30;;;;;;4118360;28;19926;-84
2023/05/17 03:30:33;;;;;;;;;;;6.60;59.10;;;;;;4125105;28;19926;-85
2023/05/17 03:32:34;;;;;;;;;;;6.50;58.70;;;;;;4114812;28;19925;-84
2023/05/17 03:34:34;;;;;;;;;;;6.60;58.40;;;;;;4099370;28;19914;-84
2023/05/17 03:36:50;;;;;;;;;;;6.60;58.50;;;;;;4131492;28;19957;-85
2023/05/17 03:38:50;;;;;;;;;;;6.50;58.20;;;;;;4118116;28;19922;-84
2023/05/17 03:40:54;;;;;;;;;;;6.50;58.00;;;;;;4116594;28;20021;-84
2023/05/17 03:43:00;;;;;;;;;;;6.60;58.10;;;;;;4115353;28;20454;-84
2023/05/17 03:45:01;;;;;;;;;;;6.60;58.00;;;;;;4119059;28;19922;-84
2023/05/17 03:47:16;;;;;;;;;;;6.50;57.80;;;;;;4116726;28;19925;-85
2023/05/17 03:49:20;;;;;;;;;;;6.60;58.00;;;;;;4117353;28;19929;-86
2023/05/17 03:51:41;;;;;;;;;;;6.60;57.90;;;;;;4120293;28;19929;-84
2023/05/17 03:53:50;;;;;;;;;;;6.50;57.80;;;;;;4119564;28;20334;-83
2023/05/17 03:56:01;;;;;;;;;;;6.60;58.10;;;;;;4104139;28;20008;-85
2023/05/17 03:58:06;;;;;;;;;;;6.60;58.10;;;;;;4119352;28;20001;-83
2023/05/17 04:00:11;;;;;;;;;;;6.60;58.10;;;;;;4119353;28;19961;-83
2023/05/17 04:02:15;;;;;;;;;;;6.70;58.10;;;;;;4118601;28;20439;-84
2023/05/17 04:04:17;;;;;;;;;;;6.70;58.20;;;;;;4116974;28;19948;-83
2023/05/17 04:06:36;;;;;;;;;;;;;;;;;;;;;
2023/05/17 04:08:40;;;;;;;;;;;6.70;58.20;;;;;;4115686;28;19922;-83
2023/05/17 04:11:08;;;;;;;;;;;6.70;58.20;;;;;;4103158;28;20393;-84
2023/05/17 04:13:29;;;;;;;;;;;6.60;57.80;;;;;;4133741;28;19937;-85
2023/05/17 04:15:50;;;;;;;;;;;6.80;57.90;;;;;;4121302;28;19917;-84
2023/05/17 04:18:01;;;;;;;;;;;6.70;57.30;;;;;;4106397;28;20047;-85
2023/05/17 04:20:25;;;;;;;;;;;6.70;56.80;;;;;;4114125;28;20035;-84
2023/05/17 04:22:42;;;;;;;;;;;6.70;56.60;;;;;;4096217;28;19922;-84
2023/05/17 04:25:10;;;;;;;;;;;6.80;56.40;;;;;;4111522;28;20511;-83
2023/05/17 04:27:34;;;;;;;;;;;6.80;56.50;;;;;;4113321;28;20427;-84
2023/05/17 04:29:54;;;;;;;;;;;6.80;56.50;;;;;;4118863;28;19980;-85
2023/05/17 04:32:16;;;;;;;;;;;6.70;56.60;;;;;;4127998;28;20024;-84
2023/05/17 04:34:39;;;;;;;;;;;6.80;56.60;;;;;;4113305;28;19922;-85
2023/05/17 04:37:03;;;;;;;;;;;6.80;56.60;;;;;;4111222;28;19923;-85
2023/05/17 04:39:24;;;;;;;;;;;6.80;56.90;;;;;;4119453;28;19964;-84
2023/05/17 04:41:43;;;;;;;;;;;6.90;56.70;;;;;;4121139;28;20085;-84
2023/05/17 04:43:47;;;;;;;;;;;6.80;56.50;;;;;;4101415;28;19957;-85
2023/05/17 04:46:10;;;;;;;;;;;6.80;56.60;;;;;;4097354;28;19973;-85
2023/05/17 04:48:15;;;;;;;;;;;6.80;56.00;;;;;;4126202;28;19932;-85
2023/05/17 04:50:47;;;;;;;;;;;6.90;55.90;;;;;;4124644;28;20203;-83
2023/05/17 04:52:48;;;;;;;;;;;6.90;56.40;;;;;;4128075;28;19960;-85
2023/05/17 04:54:58;;;;;;;;;;;6.90;56.70;;;;;;4113214;28;19953;-84
2023/05/17 04:57:06;;;;;;;;;;;6.90;56.10;;;;;;4129685;28;20458;-84
2023/05/17 04:59:21;;;;;;;;;;;6.90;56.00;;;;;;4114297;28;20097;-85
2023/05/17 05:01:29;;;;;;;;;;;6.90;56.00;;;;;;4108863;28;19914;-85
2023/05/17 05:03:31;;;;;;;;;;;7.00;56.00;;;;;;4095626;28;19926;-85
2023/05/17 05:05:35;;;;;;;;;;;6.90;55.30;;;;;;4116428;28;20422;-85
2023/05/17 05:07:51;;;;;;;;;;;7.00;55.70;;;;;;4095549;28;19926;-85
2023/05/17 05:10:50;;;;;;;;;;;7.00;55.50;;;;;;4093337;28;20424;-85
2023/05/17 05:12:52;;;;;;;;;;;7.00;55.70;;;;;;4194259;23;20685;-87
2023/05/17 05:15:24;;;;;;;;;;;7.00;55.80;;;;;;4109124;28;20791;-84
2023/05/17 05:17:51;;;;;;;;;;;7.10;55.70;;;;;;4131758;28;19980;-84
2023/05/17 05:20:22;;;;;;;;;;;7.10;56.00;;;;;;4115288;28;19922;-85
2023/05/17 05:22:57;;;;;;;;;;;7.10;56.20;;;;;;4095676;28;19945;-85
2023/05/17 05:25:36;;;;;;;;;;;7.20;56.00;;;;;;4098686;28;19945;-84
2023/05/17 05:28:00;;;;;;;;;;;7.20;56.00;;;;;;4099908;28;19950;-85
2023/05/17 05:30:44;;;;;;;;;;;7.30;56.10;;;;;;4096054;28;19958;-85
2023/05/17 05:32:53;;;;;;;;;;;7.30;56.00;;;;;;4096899;28;19932;-83
2023/05/17 05:35:00;;;;;;;;;;;7.40;55.90;;;;;;4081448;28;19927;-84
2023/05/17 05:37:23;;;;;;;;;;;7.40;55.30;;;;;;4086797;28;19942;-84
2023/05/17 05:39:24;;;;;;;;;;;7.40;55.00;;;;;;4081715;29;19926;-84
2023/05/17 05:41:28;;;;;;;;;;;7.50;55.10;;;;;;4079719;28;19942;-83
2023/05/17 05:43:32;;;;;;;;;;;7.60;55.30;;;;;;4116618;28;19922;-86
2023/05/17 05:45:35;;;;;;;;;;;7.60;55.20;;;;;;4094850;28;19931;-84
2023/05/17 05:47:36;;;;;;;;;;;7.60;55.10;;;;;;4095311;28;19932;-83
2023/05/17 05:49:37;;;;;;;;;;;7.70;54.40;;;;;;4079080;29;19948;-84
2023/05/17 05:51:43;;;;;;;;;;;7.80;54.50;;;;;;4101073;28;19944;-86
2023/05/17 05:53:51;;;;;;;;;;;7.80;54.40;;;;;;4097499;28;19923;-86
2023/05/17 05:55:52;;;;;;;;;;;7.90;53.30;;;;;;4110862;28;20009;-84
2023/05/17 05:57:58;;;;;;;;;;;7.90;53.00;;;;;;4094984;28;20686;-84
2023/05/17 06:00:17;;;;;;;;;;;7.80;52.60;;;;;;4094210;28;19944;-84
2023/05/17 06:02:34;;;;;;;;;;;7.80;52.50;;;;;;4082915;28;20324;-84
2023/05/17 06:07:11;;;;;;;;;;;7.70;52.90;;;;;;4099849;28;19926;-83
2023/05/17 06:09:57;;;;;;;;;;;7.80;53.60;;;;;;4109095;28;19937;-85
2023/05/17 06:12:22;;;;;;;;;;;7.70;53.60;;;;;;4072061;28;19915;-86
2023/05/17 06:14:25;;;;;;;;;;;7.80;53.90;;;;;;4100787;28;19961;-82
2023/05/17 06:18:59;;;;;;;;;;;7.90;53.80;;;;;;4117127;28;19921;-85
2023/05/17 06:21:05;;;;;;;;;;;8.00;53.80;;;;;;4109786;28;19927;-84
2023/05/17 06:23:20;;;;;;;;;;;7.90;53.90;;;;;;4100283;28;20047;-84
2023/05/17 06:25:28;;;;;;;;;;;8.00;53.90;;;;;;4100084;28;19933;-84
2023/05/17 06:27:51;;;;;;;;;;;8.00;53.90;;;;;;4098273;28;19933;-84
2023/05/17 06:30:26;;;;;;;;;;;8.00;54.30;;;;;;4099848;28;19994;-83
2023/05/17 06:32:40;;;;;;;;;;;8.00;54.70;;;;;;4097641;28;19914;-85
2023/05/17 06:35:12;;;;;;;;;;;8.00;54.80;;;;;;4101715;28;19922;-85
2023/05/17 06:37:18;;;;;;;;;;;7.90;55.00;;;;;;4097940;28;19929;-85
2023/05/17 06:39:21;;;;;;;;;;;7.90;55.40;;;;;;4096679;28;19922;-84
2023/05/17 06:41:22;;;;;;;;;;;7.70;55.50;;;;;;4097902;28;19978;-84
2023/05/17 06:43:23;;;;;;;;;;;7.90;55.90;;;;;;4095830;28;20296;-84
2023/05/17 06:45:34;;;;;;;;;;;7.90;56.20;;;;;;4111093;28;20000;-85
2023/05/17 06:47:37;;;;;;;;;;;8.00;56.40;;;;;;4082357;28;20246;-83
2023/05/17 06:49:58;;;;;;;;;;;8.10;56.50;;;;;;4097873;28;19922;-85
2023/05/17 06:52:14;;;;;;;;;;;8.10;56.10;;;;;;4096213;28;19925;-86
2023/05/17 06:54:19;;;;;;;;;;;8.10;56.00;;;;;;4084240;28;19914;-85
2023/05/17 06:56:30;;;;;;;;;;;8.10;55.80;;;;;;4097682;28;20640;-85
2023/05/17 06:58:36;;;;;;;;;;;8.20;55.70;;;;;;4094921;28;20335;-84
2023/05/17 07:00:50;;;;;;;;;;;8.10;55.20;;;;;;4099011;28;19922;-84
2023/05/17 07:03:30;;;;;;;;;;;;;;;;;;;;;
2023/05/17 07:06:07;;;;;;;;;;;8.20;55.00;;;;;;4094417;28;19922;-85
2023/05/17 07:12:06;;;;;;;;;;;8.30;54.20;;;;;;3988550;29;19925;-85
2023/05/17 07:18:00;;;;;;;;;;;8.30;55.00;;;;;;3979098;29;20835;-86
2023/05/17 07:20:30;;;;;;;;;;;8.30;54.40;;;;;;3957186;29;19926;-85
2023/05/17 07:25:47;;;;;;;;;;;8.40;53.60;;;;;;3993750;29;20013;-86
2023/05/17 07:27:57;;;;;;;;;;;8.50;52.70;;;;;;3965136;29;20012;-86
2023/05/17 07:30:23;;;;;;;;;;;8.60;53.00;;;;;;3964182;29;20870;-87
2023/05/17 07:32:27;;;;;;;;;;;8.60;53.40;;;;;;3981315;29;20019;-85
2023/05/17 07:34:37;;;;;;;;;;;8.60;52.90;;;;;;3983081;29;19925;-86
2023/05/17 07:36:53;;;;;;;;;;;8.60;52.20;;;;;;3985076;29;20090;-86
2023/05/17 07:39:04;;;;;;;;;;;8.60;52.40;;;;;;3981053;29;19974;-86
2023/05/17 07:41:15;;;;;;;;;;;8.60;52.30;;;;;;3965159;29;19921;-86
2023/05/17 07:43:21;;;;;;;;;;;8.60;52.20;;;;;;3966713;29;19970;-86
2023/05/17 07:45:22;;;;;;;;;;;8.60;52.00;;;;;;3964311;29;19925;-86
2023/05/17 07:47:31;;;;;;;;;;;8.60;52.60;;;;;;3981974;29;20237;-85
2023/05/17 07:49:39;;;;;;;;;;;8.70;52.70;;;;;;4032665;29;20011;-85
2023/05/17 07:54:41;;;;;;;;;;;8.80;52.70;;;;;;4075975;29;19934;-86
2023/05/17 07:56:59;;;;;;;;;;;8.90;53.00;;;;;;4076726;28;20009;-87
2023/05/17 08:01:35;;;;;;;;;;;9.00;53.10;;;;;;4042448;29;20017;-86
2023/05/17 08:03:35;;;;;;;;;;;9.00;53.30;;;;;;4059946;29;19922;-86
2023/05/17 08:05:59;;;;;;;;;;;9.10;53.00;;;;;;4062901;29;19925;-85
2023/05/17 08:09:11;;;;;;;;;;;9.20;52.80;;;;;;4045016;29;19951;-85
2023/05/17 08:11:28;;;;;;;;;;;9.20;53.10;;;;;;4015427;29;20618;-85
2023/05/17 08:16:25;;;;;;;;;;;9.30;52.60;;;;;;4048903;29;19919;-84
2023/05/17 08:19:11;;;;;;;;;;;9.40;52.10;;;;;;4035005;29;20067;-85
2023/05/17 08:21:50;;;;;;;;;;;9.40;52.30;;;;;;4044206;29;19930;-85
2023/05/17 08:24:26;;;;;;;;;;;9.50;52.60;;;;;;4018757;29;19918;-86
2023/05/17 08:26:54;;;;;;;;;;;;;;;;;;;;;
2023/05/17 08:29:30;;;;;;;;;;;9.60;52.50;;;;;;3936518;30;19930;-84
2023/05/17 08:31:45;;;;;;;;;;;9.60;52.20;;;;;;3943608;29;20361;-85
2023/05/17 08:34:09;;;;;;;;;;;9.60;51.30;;;;;;3936305;30;20330;-87
2023/05/17 08:36:33;;;;;;;;;;;9.70;50.90;;;;;;3934418;30;20005;-85
2023/05/17 08:42:00;;;;;;;;;;;9.70;51.50;;;;;;4134952;23;19937;-85
2023/05/17 08:44:24;;;;;;;;;;;9.60;52.10;;;;;;4115049;28;20300;-85
2023/05/17 08:47:06;;;;;;;;;;;9.80;52.80;;;;;;4091246;28;19922;-86
2023/05/17 08:49:48;;;;;;;;;;;9.80;52.60;;;;;;4114180;28;19925;-87
2023/05/17 08:52:09;;;;;;;;;;;9.90;51.80;;;;;;4110531;28;20040;-87
2023/05/17 08:54:33;;;;;;;;;;;9.90;52.20;;;;;;4124396;28;19921;-87
2023/05/17 08:56:57;;;;;;;;;;;10.00;51.90;;;;;;4116148;28;20016;-87
2023/05/17 08:59:32;;;;;;;;;;;9.90;50.70;;;;;;4111377;28;19926;-85
2023/05/17 09:01:53;;;;;;;;;;;10.00;51.10;;;;;;4122382;23;20454;-85
2023/05/17 09:04:15;;;;;;;;;;;10.00;50.80;;;;;;4117817;28;19951;-86
2023/05/17 09:06:36;;;;;;;;;;;10.00;50.30;;;;;;4098142;28;20399;-85
2023/05/17 09:09:00;;;;;;;;;;;10.10;50.30;;;;;;4114064;28;20247;-85
2023/05/17 09:11:31;;;;;;;;;;;10.10;50.90;;;;;;4122196;28;19929;-86
2023/05/17 09:13:52;;;;;;;;;;;10.20;50.90;;;;;;4129249;28;19925;-88
2023/05/17 09:16:13;;;;;;;;;;;10.20;51.00;;;;;;4103273;28;20335;-86
2023/05/17 09:18:34;;;;;;;;;;;10.20;51.30;;;;;;4115953;28;19932;-85
2023/05/17 09:20:58;;;;;;;;;;;10.30;51.80;;;;;;4111057;28;19928;-85
2023/05/17 09:23:39;;;;;;;;;;;10.30;52.10;;;;;;4117159;28;20020;-86
2023/05/17 09:26:04;;;;;;;;;;;10.40;52.20;;;;;;4118711;28;19918;-86
2023/05/17 09:28:08;;;;;;;;;;;10.40;52.10;;;;;;4102481;28;19950;-85
2023/05/17 09:30:40;;;;;;;;;;;;;;;;;;;;;
2023/05/17 09:32:48;;;;;;;;;;;10.50;52.30;;;;;;4108367;28;20231;-85
2023/05/17 09:35:09;;;;;;;;;;;10.60;51.70;;;;;;4107098;28;20020;-87
2023/05/17 09:37:27;;;;;;;;;;;;;;;;;;;;;
2023/05/17 09:39:36;;;;;;;;;;;10.60;51.70;;;;;;4111506;28;19980;-87
2023/05/17 09:41:57;;;;;;;;;;;;;;;;;;;;;
2023/05/17 09:44:18;;;;;;;;;;;10.70;51.50;;;;;;4109193;28;19921;-86
2023/05/17 09:46:39;;;;;;;;;;;10.70;50.90;;;;;;4118852;28;19931;-85
2023/05/17 09:49:02;;;;;;;;;;;10.70;50.50;;;;;;4098631;28;19945;-86
2023/05/17 09:51:04;;;;;;;;;;;10.70;50.50;;;;;;4083769;28;20706;-86
2023/05/17 09:53:27;;;;;;;;;;;10.70;51.00;;;;;;4114997;28;20052;-85
2023/05/17 09:55:54;;;;;;;;;;;10.70;51.20;;;;;;4127121;28;19930;-86
2023/05/17 10:01:17;;;;;;;;;;;10.70;50.30;;;;;;4125860;28;20435;-84
2023/05/17 10:06:49;;;;;;;;;;;10.70;50.20;;;;;;4076730;29;19919;-87
2023/05/17 10:09:37;;;;;;;;;;;10.90;50.20;;;;;;4038051;29;19945;-87
2023/05/17 10:18:59;;;;;;;;;;;10.90;50.20;;;;;;4059889;29;20273;-85
2023/05/17 10:24:19;;;;;;;;;;;11.00;50.60;;;;;;4225520;23;20171;-87
2023/05/17 10:27:23;;;;;;;;;;;11.00;50.10;;;;;;4121197;28;19957;-84
2023/05/17 10:30:08;;;;;;;;;;;11.00;49.40;;;;;;4062961;29;19934;-85
2023/05/17 10:32:40;;;;;;;;;;;11.10;50.10;;;;;;4053597;29;19934;-85
2023/05/17 10:35:13;;;;;;;;;;;11.10;49.00;;;;;;4063316;29;19919;-84
2023/05/17 10:40:23;;;;;;;;;;;11.20;49.70;;;;;;4070333;29;19927;-86
2023/05/17 10:42:57;;;;;;;;;;;11.20;50.20;;;;;;4067945;29;19967;-88
2023/05/17 10:45:26;;;;;;;;;;;11.30;49.20;;;;;;4059033;29;19903;-85
2023/05/17 10:52:31;;;;;;;;;;;11.40;48.00;;;;;;4037443;29;19953;-87
2023/05/17 10:54:52;;;;;;;;;;;11.50;48.80;;;;;;4027471;29;19924;-85
2023/05/17 10:57:03;;;;;;;;;;;11.40;48.60;;;;;;4024094;29;19936;-85
2023/05/17 10:59:20;;;;;;;;;;;11.40;49.20;;;;;;4044635;29;19972;-85
2023/05/17 11:03:35;;;;;;;;;;;11.40;48.90;;;;;;2283682;26;20015;-86
2023/05/17 11:05:42;;;;;;;;;;;11.40;49.30;;;;;;4087926;28;19923;-88
2023/05/17 11:08:09;;;;;;;;;;;11.40;49.40;;;;;;4088968;29;19931;-88
2023/05/17 11:10:26;;;;;;;;;;;11.40;49.00;;;;;;4105837;28;19978;-85
2023/05/17 11:12:54;;;;;;;;;;;11.40;49.50;;;;;;4089874;29;19903;-84
2023/05/17 11:15:49;;;;;;;;;;;11.50;49.40;;;;;;4114387;28;19926;-89
2023/05/17 11:18:13;;;;;;;;;;;11.40;49.20;;;;;;4108660;28;19922;-85
2023/05/17 11:20:33;;;;;;;;;;;11.50;49.40;;;;;;4105969;28;20431;-85
2023/05/17 11:22:36;;;;;;;;;;;11.40;49.40;;;;;;4118926;28;20019;-87
2023/05/17 11:24:39;;;;;;;;;;;11.50;49.30;;;;;;4104645;28;19930;-84
2023/05/17 11:29:27;;;;;;;;;;;11.60;50.10;;;;;;4059628;29;19931;-86
2023/05/17 11:31:54;;;;;;;;;;;11.60;50.50;;;;;;4168816;23;19930;-87
2023/05/17 11:33:59;;;;;;;;;;;11.50;50.10;;;;;;4075254;29;19986;-86
2023/05/17 11:36:48;;;;;;;;;;;11.60;50.40;;;;;;4109385;28;19981;-87
2023/05/17 11:39:16;;;;;;;;;;;11.60;50.30;;;;;;4100440;28;19923;-85
2023/05/17 11:41:57;;;;;;;;;;;11.70;50.40;;;;;;4112344;28;19934;-86
2023/05/17 11:44:33;;;;;;;;;;;11.70;49.60;;;;;;4107602;28;20128;-85
2023/05/17 11:47:09;;;;;;;;;;;11.70;49.20;;;;;;4124521;28;19926;-86
2023/05/17 11:49:33;;;;;;;;;;;11.70;49.60;;;;;;4124792;28;19915;-85
2023/05/17 11:52:00;;;;;;;;;;;11.80;49.80;;;;;;4114812;28;19907;-87
2023/05/17 11:54:05;;;;;;;;;;;11.80;48.70;;;;;;4099450;28;19993;-89
2023/05/17 11:56:11;;;;;;;;;;;11.80;48.60;;;;;;4104929;28;19930;-86
2023/05/17 11:58:41;;;;;;;;;;;11.80;48.60;;;;;;4108703;28;20063;-86
2023/05/17 12:00:42;;;;;;;;;;;11.70;49.10;;;;;;4111198;28;20569;-86
2023/05/17 12:02:49;;;;;;;;;;;11.90;49.60;;;;;;4101354;28;19942;-86
2023/05/17 12:04:49;;;;;;;;;;;11.90;49.50;;;;;;4084468;29;19923;-87
2023/05/17 12:06:51;;;;;;;;;;;11.80;49.30;;;;;;4080201;29;19922;-85
2023/05/17 12:09:09;;;;;;;;;;;11.80;48.80;;;;;;4095209;28;20016;-84
2023/05/17 12:11:29;;;;;;;;;;;11.90;48.50;;;;;;4087692;29;19925;-86
2023/05/17 12:16:31;;;;;;;;;;;11.80;48.90;;;;;;4041703;29;20022;-86
2023/05/17 12:19:02;;;;;;;;;;;11.80;48.30;;;;;;4065457;29;20561;-86
2023/05/17 12:21:26;;;;;;;;;;;11.80;48.70;;;;;;4080116;29;19962;-85
2023/05/17 12:23:53;;;;;;;;;;;11.80;48.20;;;;;;4052910;29;19930;-85
2023/05/17 12:26:35;;;;;;;;;;;11.90;48.50;;;;;;4074558;29;19919;-85
2023/05/17 12:29:09;;;;;;;;;;;11.90;48.30;;;;;;4033727;29;19920;-85
2023/05/17 12:31:41;;;;;;;;;;;11.90;47.60;;;;;;4028372;29;19935;-87
2023/05/17 12:34:26;;;;;;;;;;;;;;;;;;;;;
2023/05/17 12:36:52;;;;;;;;;;;12.00;47.70;;;;;;4030161;29;19920;-87
2023/05/17 12:39:16;;;;;;;;;;;12.00;47.50;;;;;;4016138;29;19981;-88
2023/05/17 12:41:38;;;;;;;;;;;12.00;47.60;;;;;;4018328;29;19919;-86
2023/05/17 12:44:09;;;;;;;;;;;12.10;47.20;;;;;;4026007;29;19930;-87
2023/05/17 12:46:33;;;;;;;;;;;12.10;47.50;;;;;;4061581;29;19919;-85
2023/05/17 12:48:54;;;;;;;;;;;12.10;47.10;;;;;;4057913;29;19934;-86
2023/05/17 12:50:55;;;;;;;;;;;12.10;47.40;;;;;;4054038;29;19919;-86
2023/05/17 12:53:39;;;;;;;;;;;12.10;47.30;;;;;;4055740;29;21994;-85
2023/05/17 12:56:29;;;;;;;;;;;12.10;47.20;;;;;;4074967;29;19915;-87
2023/05/17 12:59:08;;;;;;;;;;;12.00;47.20;;;;;;4077009;29;19980;-87
2023/05/17 13:01:59;;;;;;;;;;;11.90;47.50;;;;;;4075083;29;20396;-86
2023/05/17 13:04:37;;;;;;;;;;;11.90;47.40;;;;;;4073933;29;19919;-87
2023/05/17 13:07:01;;;;;;;;;;;11.90;47.00;;;;;;4072322;28;19950;-85
2023/05/17 13:09:26;;;;;;;;;;;11.80;47.30;;;;;;4075147;28;19937;-86
2023/05/17 13:12:08;;;;;;;;;;;11.80;47.40;;;;;;4078094;29;19926;-85
2023/05/17 13:14:50;;;;;;;;;;;11.80;47.40;;;;;;4075408;29;19918;-86
2023/05/17 13:17:41;;;;;;;;;;;11.80;48.10;;;;;;4066525;29;19919;-85
2023/05/17 13:20:03;;;;;;;;;;;11.80;47.50;;;;;;4081159;29;19934;-84
2023/05/17 13:22:14;;;;;;;;;;;11.80;47.40;;;;;;4070691;29;20389;-86
2023/05/17 13:24:44;;;;;;;;;;;11.80;47.60;;;;;;4074464;29;19918;-86
2023/05/17 13:26:48;;;;;;;;;;;11.80;48.30;;;;;;4058044;29;19919;-86
2023/05/17 13:29:06;;;;;;;;;;;11.90;48.60;;;;;;4068518;29;19933;-88
2023/05/17 13:31:13;;;;;;;;;;;11.90;49.10;;;;;;4084858;29;19923;-85
2023/05/17 13:33:25;;;;;;;;;;;11.90;48.60;;;;;;4064745;29;19923;-86
2023/05/17 13:35:59;;;;;;;;;;;11.90;48.00;;;;;;4083189;28;19926;-87
2023/05/17 13:38:16;;;;;;;;;;;12.00;48.00;;;;;;4091256;28;19926;-85
2023/05/17 13:40:47;;;;;;;;;;;;;;;;;;;;;
2023/05/17 13:42:58;;;;;;;;;;;11.90;47.70;;;;;;4093083;28;19934;-87
2023/05/17 13:45:19;;;;;;;;;;;11.90;47.50;;;;;;4090847;28;19923;-87
2023/05/17 13:47:21;;;;;;;;;;;11.90;48.00;;;;;;4109353;28;19914;-86
2023/05/17 13:53:07;;;;;;;;;;;;;;;;;;;;;
2023/05/17 13:55:28;;;;;;;;;;;11.70;48.30;;;;;;4063413;29;19923;-87
2023/05/17 13:58:03;;;;;;;;;;;11.60;48.00;;;;;;4060913;29;19954;-85
2023/05/17 14:00:39;;;;;;;;;;;11.60;48.00;;;;;;4049298;29;19916;-85
2023/05/17 14:03:01;;;;;;;;;;;11.70;47.70;;;;;;4123926;23;20447;-87
2023/05/17 14:05:32;;;;;;;;;;;11.80;47.60;;;;;;4108090;28;20514;-86
2023/05/17 14:08:11;;;;;;;;;;;11.90;47.80;;;;;;4106956;28;20001;-85
2023/05/17 14:10:37;;;;;;;;;;;11.90;47.90;;;;;;4106222;28;19922;-86
2023/05/17 14:13:06;;;;;;;;;;;11.90;47.80;;;;;;4103737;28;19965;-87
2023/05/17 14:18:19;;;;;;;;;;;11.90;48.50;;;;;;4092041;28;20621;-86
2023/05/17 14:20:40;;;;;;;;;;;11.90;47.70;;;;;;4106792;28;19918;-86
2023/05/17 14:23:07;;;;;;;;;;;12.00;47.80;;;;;;4105969;28;19997;-84
2023/05/17 14:25:28;;;;;;;;;;;11.90;46.90;;;;;;4040959;29;19920;-87
2023/05/17 14:28:12;;;;;;;;;;;11.90;46.90;;;;;;4029618;29;20452;-86
2023/05/17 14:30:53;;;;;;;;;;;11.80;46.40;;;;;;4046166;29;20006;-86
2023/05/17 14:33:24;;;;;;;;;;;11.90;47.60;;;;;;4037397;29;19978;-85
2023/05/17 14:35:56;;;;;;;;;;;11.80;48.70;;;;;;4047039;29;20014;-86
2023/05/17 14:38:26;;;;;;;;;;;11.80;47.90;;;;;;4032784;29;19916;-85
2023/05/17 14:40:47;;;;;;;;;;;11.80;48.00;;;;;;4112139;28;19926;-85
2023/05/17 14:43:18;;;;;;;;;;;11.70;47.60;;;;;;4108199;28;19928;-87
2023/05/17 14:45:42;;;;;;;;;;;11.80;47.60;;;;;;4100822;28;19968;-87
2023/05/17 14:48:13;;;;;;;;;;;11.70;48.00;;;;;;4106327;28;19918;-85
2023/05/17 14:50:34;;;;;;;;;;;11.70;46.90;;;;;;4107554;28;19977;-84